createdAt,value
2017-01-25T00:00:47.735Z,0
2017-01-25T00:01:47.375Z,0
2017-01-25T00:02:46.988Z,0
2017-01-25T00:03:48.073Z,0
2017-01-25T00:04:48.241Z,0
2017-01-25T00:05:47.078Z,0
2017-01-25T00:06:47.506Z,0
2017-01-25T00:07:47.528Z,0
2017-01-25T00:08:48.201Z,0
2017-01-25T00:09:47.973Z,0
2017-01-25T00:10:48.393Z,0
2017-01-25T00:11:47.234Z,0
2017-01-25T00:12:47.263Z,0
2017-01-25T00:13:47.936Z,0
2017-01-25T00:14:48.101Z,0
2017-01-25T00:15:47.730Z,0
2017-01-25T00:16:47.367Z,0
2017-01-25T00:17:48.179Z,0
2017-01-25T00:18:48.061Z,0
2017-01-25T00:19:47.828Z,0
2017-01-25T00:20:47.861Z,0
2017-01-25T00:21:47.494Z,0
2017-01-25T00:22:48.306Z,0
2017-01-25T00:23:47.791Z,0
2017-01-25T00:24:47.959Z,0
2017-01-25T00:25:47.993Z,0
2017-01-25T00:26:48.008Z,0
2017-01-25T00:27:48.835Z,0
2017-01-25T00:28:48.715Z,0
2017-01-25T00:29:48.888Z,0
2017-01-25T00:30:48.909Z,0
2017-01-25T00:31:47.748Z,0
2017-01-25T00:32:48.174Z,0
2017-01-25T00:33:48.842Z,0
2017-01-25T00:34:48.215Z,0
2017-01-25T00:35:47.851Z,0
2017-01-25T00:36:48.672Z,0
2017-01-25T00:37:48.298Z,0
2017-01-25T00:38:48.435Z,0
2017-01-25T00:39:48.355Z,0
2017-01-25T00:40:48.776Z,0
2017-01-25T00:41:48.816Z,0
2017-01-25T00:42:48.825Z,0
2017-01-25T00:43:49.503Z,0
2017-01-25T00:44:48.478Z,0
2017-01-25T00:45:48.112Z,0
2017-01-25T00:46:48.559Z,0
2017-01-25T00:47:48.580Z,0
2017-01-25T00:48:48.830Z,0
2017-01-25T00:49:48.606Z,0
2017-01-25T00:50:49.035Z,0
2017-01-25T00:51:49.451Z,0
2017-01-25T00:52:48.276Z,0
2017-01-25T00:53:48.988Z,0
2017-01-25T00:54:49.123Z,0
2017-01-25T00:55:48.358Z,0
2017-01-25T00:56:48.791Z,0
2017-01-25T00:57:49.212Z,0
2017-01-25T00:58:48.439Z,0
2017-01-25T00:59:49.509Z,0
2017-01-25T01:00:49.682Z,0
2017-01-25T01:01:49.702Z,0
2017-01-25T01:02:49.732Z,0
2017-01-25T01:03:49.757Z,0
2017-01-25T01:04:50.029Z,0
2017-01-25T01:05:48.610Z,0
2017-01-25T01:06:48.647Z,0
2017-01-25T01:07:49.071Z,0
2017-01-25T01:08:48.696Z,0
2017-01-25T01:09:49.769Z,0
2017-01-25T01:10:49.137Z,0
2017-01-25T01:11:49.563Z,0
2017-01-25T01:12:49.991Z,0
2017-01-25T01:13:49.618Z,0
2017-01-25T01:14:50.152Z,0
2017-01-25T01:15:48.881Z,0
2017-01-25T01:16:49.298Z,0
2017-01-25T01:17:49.721Z,0
2017-01-25T01:18:49.746Z,0
2017-01-25T01:19:50.024Z,0
2017-01-25T01:20:49.400Z,0
2017-01-25T01:21:49.818Z,0
2017-01-25T01:22:49.455Z,0
2017-01-25T01:23:49.876Z,0
2017-01-25T01:24:50.143Z,0
2017-01-25T01:25:49.516Z,0
2017-01-25T01:26:49.554Z,0
2017-01-25T01:27:49.626Z,0
2017-01-25T01:28:49.590Z,0
2017-01-25T01:29:49.879Z,0
2017-01-25T01:30:49.656Z,0
2017-01-25T01:31:49.680Z,0
2017-01-25T01:32:50.499Z,0
2017-01-25T01:33:50.122Z,0
2017-01-25T01:34:50.403Z,0
2017-01-25T01:35:50.579Z,0
2017-01-25T01:36:49.813Z,0
2017-01-25T01:37:50.253Z,0
2017-01-25T01:38:49.846Z,0
2017-01-25T01:39:50.137Z,0
2017-01-25T01:40:49.515Z,0
2017-01-25T01:41:50.360Z,0
2017-01-25T01:42:50.750Z,0
2017-01-25T01:43:49.990Z,0
2017-01-25T01:44:50.670Z,0
2017-01-25T01:45:50.027Z,0
2017-01-25T01:46:50.455Z,0
2017-01-25T01:47:50.092Z,0
2017-01-25T01:48:50.529Z,0
2017-01-25T01:49:50.530Z,0
2017-01-25T01:50:50.020Z,0
2017-01-25T01:51:49.796Z,0
2017-01-25T01:52:50.213Z,0
2017-01-25T01:53:51.028Z,0
2017-01-25T01:54:51.065Z,0
2017-01-25T01:55:50.531Z,0
2017-01-25T01:56:50.735Z,0
2017-01-25T01:57:50.756Z,0
2017-01-25T01:58:50.761Z,0
2017-01-25T01:59:50.392Z,0
2017-01-25T02:00:51.059Z,0
2017-01-25T02:01:50.436Z,0
2017-01-25T02:02:50.856Z,0
2017-01-25T02:03:50.497Z,0
2017-01-25T02:04:50.910Z,0
2017-01-25T02:05:51.187Z,0
2017-01-25T02:06:50.954Z,0
2017-01-25T02:07:50.207Z,0
2017-01-25T02:08:51.036Z,0
2017-01-25T02:09:50.248Z,0
2017-01-25T02:10:50.520Z,0
2017-01-25T02:11:50.299Z,0
2017-01-25T02:12:51.512Z,0
2017-01-25T02:13:51.136Z,0
2017-01-25T02:14:50.764Z,0
2017-01-25T02:15:51.045Z,0
2017-01-25T02:16:51.214Z,0
2017-01-25T02:17:50.847Z,0
2017-01-25T02:18:51.264Z,0
2017-01-25T02:19:51.724Z,0
2017-01-25T02:20:51.226Z,0
2017-01-25T02:21:50.950Z,0
2017-01-25T02:22:50.975Z,0
2017-01-25T02:23:51.791Z,0
2017-01-25T02:24:51.424Z,0
2017-01-25T02:25:51.700Z,0
2017-01-25T02:26:50.674Z,0
2017-01-25T02:27:51.106Z,0
2017-01-25T02:28:50.735Z,0
2017-01-25T02:29:51.172Z,0
2017-01-25T02:30:51.025Z,0
2017-01-25T02:31:50.810Z,0
2017-01-25T02:32:51.227Z,0
2017-01-25T02:33:51.646Z,0
2017-01-25T02:34:51.675Z,0
2017-01-25T02:35:51.148Z,0
2017-01-25T02:36:50.933Z,0
2017-01-25T02:37:51.746Z,0
2017-01-25T02:38:50.982Z,0
2017-01-25T02:39:51.399Z,0
2017-01-25T02:40:52.085Z,0
2017-01-25T02:41:51.473Z,0
2017-01-25T02:42:51.481Z,0
2017-01-25T02:43:51.491Z,0
2017-01-25T02:44:52.317Z,0
2017-01-25T02:45:52.203Z,0
2017-01-25T02:46:51.580Z,0
2017-01-25T02:47:51.641Z,0
2017-01-25T02:48:52.430Z,0
2017-01-25T02:49:51.254Z,0
2017-01-25T02:50:52.371Z,0
2017-01-25T02:51:51.704Z,0
2017-01-25T02:52:51.733Z,0
2017-01-25T02:53:51.757Z,0
2017-01-25T02:54:52.171Z,0
2017-01-25T02:55:52.057Z,0
2017-01-25T02:56:51.832Z,0
2017-01-25T02:57:52.248Z,0
2017-01-25T02:58:52.280Z,0
2017-01-25T02:59:51.913Z,0
2017-01-25T03:00:52.187Z,0
2017-01-25T03:01:51.959Z,0
2017-01-25T03:02:51.980Z,0
2017-01-25T03:03:52.405Z,0
2017-01-25T03:04:52.034Z,0
2017-01-25T03:05:52.700Z,0
2017-01-25T03:06:52.474Z,0
2017-01-25T03:07:52.113Z,0
2017-01-25T03:08:52.132Z,0
2017-01-25T03:09:51.761Z,0
2017-01-25T03:10:52.574Z,0
2017-01-25T03:11:52.450Z,0
2017-01-25T03:12:52.235Z,0
2017-01-25T03:13:52.655Z,0
2017-01-25T03:14:53.085Z,0
2017-01-25T03:15:52.705Z,0
2017-01-25T03:16:52.587Z,0
2017-01-25T03:17:53.151Z,0
2017-01-25T03:18:52.387Z,0
2017-01-25T03:19:52.401Z,0
2017-01-25T03:20:52.438Z,0
2017-01-25T03:21:52.733Z,0
2017-01-25T03:22:52.499Z,0
2017-01-25T03:23:52.913Z,0
2017-01-25T03:24:52.533Z,0
2017-01-25T03:25:52.950Z,0
2017-01-25T03:26:53.225Z,0
2017-01-25T03:27:52.606Z,0
2017-01-25T03:28:53.027Z,0
2017-01-25T03:29:52.659Z,0
2017-01-25T03:30:53.072Z,0
2017-01-25T03:31:53.361Z,0
2017-01-25T03:32:53.133Z,0
2017-01-25T03:33:52.755Z,0
2017-01-25T03:34:53.568Z,0
2017-01-25T03:35:52.412Z,0
2017-01-25T03:36:53.076Z,0
2017-01-25T03:37:52.861Z,0
2017-01-25T03:38:52.886Z,0
2017-01-25T03:39:52.907Z,0
2017-01-25T03:40:52.938Z,0
2017-01-25T03:41:53.241Z,0
2017-01-25T03:42:53.782Z,0
2017-01-25T03:43:53.405Z,0
2017-01-25T03:44:53.822Z,0
2017-01-25T03:45:53.460Z,0
2017-01-25T03:46:53.337Z,0
2017-01-25T03:47:53.117Z,0
2017-01-25T03:48:53.142Z,0
2017-01-25T03:49:53.559Z,0
2017-01-25T03:50:53.184Z,0
2017-01-25T03:51:53.860Z,0
2017-01-25T03:52:53.633Z,0
2017-01-25T03:53:53.654Z,0
2017-01-25T03:54:53.682Z,0
2017-01-25T03:55:52.915Z,0
2017-01-25T03:56:53.583Z,0
2017-01-25T03:57:53.356Z,0
2017-01-25T03:58:53.385Z,0
2017-01-25T03:59:53.437Z,0
2017-01-25T04:00:55.312Z,0
2017-01-25T04:01:53.720Z,0
2017-01-25T04:02:54.284Z,0
2017-01-25T04:03:54.304Z,0
2017-01-25T04:04:53.533Z,0
2017-01-25T04:05:53.954Z,0
2017-01-25T04:06:54.631Z,0
2017-01-25T04:07:54.011Z,0
2017-01-25T04:08:53.636Z,0
2017-01-25T04:09:54.057Z,0
2017-01-25T04:10:53.285Z,0
2017-01-25T04:11:53.962Z,0
2017-01-25T04:12:53.766Z,0
2017-01-25T04:13:54.545Z,0
2017-01-25T04:14:53.811Z,0
2017-01-25T04:15:53.417Z,0
2017-01-25T04:16:54.081Z,0
2017-01-25T04:17:54.655Z,0
2017-01-25T04:18:53.935Z,0
2017-01-25T04:19:53.908Z,0
2017-01-25T04:20:53.934Z,0
2017-01-25T04:21:54.597Z,0
2017-01-25T04:22:54.383Z,0
2017-01-25T04:23:53.611Z,0
2017-01-25T04:24:54.035Z,0
2017-01-25T04:25:54.457Z,0
2017-01-25T04:26:54.724Z,0
2017-01-25T04:27:53.709Z,0
2017-01-25T04:28:54.531Z,0
2017-01-25T04:29:54.156Z,0
2017-01-25T04:30:54.179Z,0
2017-01-25T04:31:54.856Z,0
2017-01-25T04:32:54.626Z,0
2017-01-25T04:33:54.650Z,0
2017-01-25T04:34:54.683Z,0
2017-01-25T04:35:54.304Z,0
2017-01-25T04:36:54.328Z,0
2017-01-25T04:37:54.609Z,0
2017-01-25T04:38:54.381Z,0
2017-01-25T04:39:54.006Z,0
2017-01-25T04:40:54.824Z,0
2017-01-25T04:41:55.244Z,0
2017-01-25T04:42:54.980Z,0
2017-01-25T04:43:54.114Z,0
2017-01-25T04:44:54.538Z,0
2017-01-25T04:45:54.155Z,0
2017-01-25T04:46:54.180Z,0
2017-01-25T04:47:54.860Z,0
2017-01-25T04:48:54.229Z,0
2017-01-25T04:49:55.046Z,0
2017-01-25T04:50:55.082Z,0
2017-01-25T04:51:55.526Z,0
2017-01-25T04:52:55.779Z,0
2017-01-25T04:53:54.777Z,0
2017-01-25T04:54:54.782Z,0
2017-01-25T04:55:55.194Z,0
2017-01-25T04:56:54.439Z,0
2017-01-25T04:57:55.107Z,0
2017-01-25T04:58:54.883Z,0
2017-01-25T04:59:55.297Z,0
2017-01-25T05:00:55.326Z,0
2017-01-25T05:01:54.950Z,0
2017-01-25T05:02:55.622Z,0
2017-01-25T05:03:55.400Z,0
2017-01-25T05:04:55.428Z,0
2017-01-25T05:05:55.053Z,0
2017-01-25T05:06:55.482Z,0
2017-01-25T05:07:55.351Z,0
2017-01-25T05:08:55.161Z,0
2017-01-25T05:09:55.945Z,0
2017-01-25T05:10:55.969Z,0
2017-01-25T05:11:55.201Z,0
2017-01-25T05:12:55.866Z,0
2017-01-25T05:13:54.858Z,0
2017-01-25T05:14:55.275Z,0
2017-01-25T05:15:55.304Z,0
2017-01-25T05:16:55.325Z,0
2017-01-25T05:17:55.598Z,0
2017-01-25T05:18:56.155Z,0
2017-01-25T05:19:55.404Z,0
2017-01-25T05:20:55.818Z,0
2017-01-25T05:21:55.847Z,0
2017-01-25T05:22:55.702Z,0
2017-01-25T05:23:55.111Z,0
2017-01-25T05:24:55.919Z,0
2017-01-25T05:25:55.149Z,0
2017-01-25T05:26:55.573Z,0
2017-01-25T05:27:55.845Z,0
2017-01-25T05:28:55.621Z,0
2017-01-25T05:29:55.675Z,0
2017-01-25T05:30:55.671Z,0
2017-01-25T05:31:55.696Z,0
2017-01-25T05:32:55.968Z,0
2017-01-25T05:33:55.341Z,0
2017-01-25T05:34:56.170Z,0
2017-01-25T05:35:55.787Z,0
2017-01-25T05:36:55.417Z,0
2017-01-25T05:37:56.488Z,0
2017-01-25T05:38:56.661Z,0
2017-01-25T05:39:56.297Z,0
2017-01-25T05:40:55.946Z,0
2017-01-25T05:41:55.543Z,0
2017-01-25T05:42:55.563Z,0
2017-01-25T05:43:56.632Z,0
2017-01-25T05:44:55.617Z,0
2017-01-25T05:45:56.434Z,0
2017-01-25T05:46:55.669Z,0
2017-01-25T05:47:56.085Z,0
2017-01-25T05:48:56.759Z,0
2017-01-25T05:49:56.139Z,0
2017-01-25T05:50:56.953Z,0
2017-01-25T05:51:56.194Z,0
2017-01-25T05:52:56.611Z,0
2017-01-25T05:53:56.095Z,0
2017-01-25T05:54:55.868Z,0
2017-01-25T05:55:56.313Z,0
2017-01-25T05:56:56.315Z,0
2017-01-25T05:57:56.731Z,0
2017-01-25T05:58:56.223Z,0
2017-01-25T05:59:56.387Z,0
2017-01-25T06:00:56.808Z,0
2017-01-25T06:01:57.221Z,0
2017-01-25T06:02:57.259Z,0
2017-01-25T06:03:57.133Z,0
2017-01-25T06:04:56.909Z,0
2017-01-25T06:05:56.548Z,0
2017-01-25T06:06:56.180Z,0
2017-01-25T06:07:56.984Z,0
2017-01-25T06:08:56.877Z,0
2017-01-25T06:09:56.637Z,0
2017-01-25T06:10:56.667Z,0
2017-01-25T06:11:57.480Z,0
2017-01-25T06:12:57.500Z,0
2017-01-25T06:13:57.390Z,0
2017-01-25T06:14:56.367Z,0
2017-01-25T06:15:56.786Z,0
2017-01-25T06:16:56.811Z,0
2017-01-25T06:17:57.221Z,0
2017-01-25T06:18:57.514Z,0
2017-01-25T06:19:56.492Z,0
2017-01-25T06:20:56.506Z,0
2017-01-25T06:21:57.329Z,0
2017-01-25T06:22:57.757Z,0
2017-01-25T06:23:57.256Z,0
2017-01-25T06:24:57.397Z,0
2017-01-25T06:25:57.438Z,0
2017-01-25T06:26:57.863Z,0
2017-01-25T06:27:57.084Z,0
2017-01-25T06:28:56.968Z,0
2017-01-25T06:29:57.160Z,0
2017-01-25T06:30:57.945Z,0
2017-01-25T06:31:57.571Z,0
2017-01-25T06:32:57.211Z,0
2017-01-25T06:33:57.233Z,0
2017-01-25T06:34:57.906Z,0
2017-01-25T06:35:57.363Z,0
2017-01-25T06:36:57.797Z,0
2017-01-25T06:37:57.409Z,0
2017-01-25T06:38:57.045Z,0
2017-01-25T06:39:57.309Z,0
2017-01-25T06:40:57.087Z,0
2017-01-25T06:42:12.792Z,0
2017-01-25T06:42:57.938Z,0
2017-01-25T06:43:57.912Z,0
2017-01-25T06:44:58.156Z,0
2017-01-25T06:45:58.326Z,0
2017-01-25T06:46:58.337Z,0
2017-01-25T06:47:58.367Z,0
2017-01-25T06:48:58.399Z,0
2017-01-25T06:49:58.668Z,0
2017-01-25T06:50:57.661Z,0
2017-01-25T06:51:58.474Z,0
2017-01-25T06:52:57.715Z,4
2017-01-25T06:53:57.768Z,4
2017-01-25T06:54:58.008Z,0
2017-01-25T06:55:58.577Z,0
2017-01-25T06:56:58.201Z,4
2017-01-25T06:57:58.251Z,4
2017-01-25T06:58:57.859Z,4
2017-01-25T06:59:58.924Z,4
2017-01-25T07:00:58.308Z,8
2017-01-25T07:01:57.942Z,4
2017-01-25T07:02:57.956Z,8
2017-01-25T07:03:58.367Z,8
2017-01-25T07:04:58.268Z,8
2017-01-25T07:05:58.040Z,12
2017-01-25T07:06:58.858Z,12
2017-01-25T07:07:58.870Z,16
2017-01-25T07:08:57.715Z,16
2017-01-25T07:09:58.780Z,16
2017-01-25T07:10:58.952Z,16
2017-01-25T07:11:58.974Z,16
2017-01-25T07:12:57.817Z,20
2017-01-25T07:13:57.838Z,24
2017-01-25T07:14:58.500Z,20
2017-01-25T07:15:58.288Z,28
2017-01-25T07:16:58.705Z,28
2017-01-25T07:17:58.338Z,32
2017-01-25T07:18:58.363Z,36
2017-01-25T07:19:58.387Z,36
2017-01-25T07:20:59.060Z,36
2017-01-25T07:21:58.865Z,40
2017-01-25T07:22:59.258Z,40
2017-01-25T07:23:59.319Z,40
2017-01-25T07:24:58.915Z,48
2017-01-25T07:25:58.780Z,52
2017-01-25T07:26:58.560Z,48
2017-01-25T07:27:58.193Z,52
2017-01-25T07:28:59.018Z,56
2017-01-25T07:29:58.640Z,64
2017-01-25T07:30:58.916Z,64
2017-01-25T07:31:58.283Z,64
2017-01-25T07:32:59.506Z,72
2017-01-25T07:33:59.538Z,68
2017-01-25T07:34:59.551Z,72
2017-01-25T07:35:59.436Z,76
2017-01-25T07:36:59.213Z,72
2017-01-25T07:37:58.837Z,76
2017-01-25T07:38:58.865Z,72
2017-01-25T07:39:58.892Z,76
2017-01-25T07:40:59.168Z,80
2017-01-25T07:41:58.944Z,88
2017-01-25T07:42:58.969Z,96
2017-01-25T07:43:58.998Z,108
2017-01-25T07:44:59.022Z,108
2017-01-25T07:45:59.692Z,116
2017-01-25T07:46:59.472Z,132
2017-01-25T07:47:59.492Z,128
2017-01-25T07:48:59.122Z,132
2017-01-25T07:49:59.154Z,140
2017-01-25T07:50:59.815Z,132
2017-01-25T07:51:59.196Z,136
2017-01-25T07:52:59.611Z,152
2017-01-25T07:53:59.244Z,160
2017-01-25T07:54:59.268Z,160
2017-01-25T07:55:59.550Z,160
2017-01-25T07:56:59.320Z,160
2017-01-25T07:57:59.768Z,192
2017-01-25T07:59:00.163Z,192
2017-01-25T07:59:59.393Z,196
2017-01-25T08:00:59.291Z,192
2017-01-25T08:01:59.449Z,196
2017-01-25T08:02:59.471Z,216
2017-01-25T08:03:59.519Z,216
2017-01-25T08:04:59.514Z,224
2017-01-25T08:05:59.802Z,224
2017-01-25T08:06:59.176Z,220
2017-01-25T08:07:59.600Z,216
2017-01-25T08:09:00.416Z,220
2017-01-25T08:09:59.674Z,212
2017-01-25T08:10:59.918Z,208
2017-01-25T08:11:59.302Z,224
2017-01-25T08:13:00.120Z,216
2017-01-25T08:13:59.767Z,248
2017-01-25T08:14:59.376Z,224
2017-01-25T08:15:59.646Z,232
2017-01-25T08:17:00.226Z,252
2017-01-25T08:18:00.273Z,284
2017-01-25T08:19:00.271Z,268
2017-01-25T08:20:00.692Z,260
2017-01-25T08:20:59.776Z,256
2017-01-25T08:21:59.949Z,260
2017-01-25T08:23:00.766Z,304
2017-01-25T08:24:00.394Z,276
2017-01-25T08:25:00.023Z,260
2017-01-25T08:26:00.292Z,256
2017-01-25T08:26:59.676Z,300
2017-01-25T08:28:00.101Z,280
2017-01-25T08:29:00.126Z,296
2017-01-25T08:30:00.147Z,296
2017-01-25T08:31:00.427Z,272
2017-01-25T08:32:00.585Z,252
2017-01-25T08:33:00.221Z,280
2017-01-25T08:34:01.033Z,272
2017-01-25T08:35:00.274Z,268
2017-01-25T08:36:00.846Z,272
2017-01-25T08:37:01.115Z,304
2017-01-25T08:38:00.752Z,292
2017-01-25T08:38:59.982Z,292
2017-01-25T08:40:01.194Z,308
2017-01-25T08:41:01.475Z,308
2017-01-25T08:42:01.239Z,320
2017-01-25T08:43:00.872Z,324
2017-01-25T08:44:01.293Z,304
2017-01-25T08:45:00.542Z,324
2017-01-25T08:46:00.153Z,344
2017-01-25T08:47:01.220Z,360
2017-01-25T08:48:00.600Z,364
2017-01-25T08:49:00.624Z,376
2017-01-25T08:50:00.645Z,424
2017-01-25T08:51:00.666Z,440
2017-01-25T08:52:00.955Z,448
2017-01-25T08:53:01.511Z,448
2017-01-25T08:54:00.752Z,448
2017-01-25T08:55:00.776Z,460
2017-01-25T08:56:00.797Z,460
2017-01-25T08:57:01.466Z,464
2017-01-25T08:58:00.447Z,452
2017-01-25T08:59:01.263Z,424
2017-01-25T09:00:01.297Z,436
2017-01-25T09:01:00.525Z,432
2017-01-25T09:02:01.990Z,484
2017-01-25T09:03:01.759Z,468
2017-01-25T09:04:00.602Z,460
2017-01-25T09:05:01.024Z,488
2017-01-25T09:06:00.645Z,496
2017-01-25T09:07:01.722Z,516
2017-01-25T09:08:01.103Z,544
2017-01-25T09:09:01.125Z,564
2017-01-25T09:10:01.144Z,596
2017-01-25T09:11:01.164Z,592
2017-01-25T09:12:02.253Z,632
2017-01-25T09:13:00.826Z,636
2017-01-25T09:14:01.248Z,568
2017-01-25T09:15:00.871Z,596
2017-01-25T09:16:01.299Z,724
2017-01-25T09:17:01.572Z,772
2017-01-25T09:18:01.742Z,756
2017-01-25T09:19:02.169Z,692
2017-01-25T09:20:01.401Z,612
2017-01-25T09:21:02.224Z,588
2017-01-25T09:22:01.953Z,580
2017-01-25T09:23:01.870Z,600
2017-01-25T09:24:01.886Z,612
2017-01-25T09:25:01.123Z,568
2017-01-25T09:26:01.940Z,564
2017-01-25T09:27:01.822Z,604
2017-01-25T09:28:02.381Z,608
2017-01-25T09:29:02.017Z,640
2017-01-25T09:30:01.642Z,696
2017-01-25T09:31:02.072Z,752
2017-01-25T09:32:02.740Z,760
2017-01-25T09:33:02.517Z,748
2017-01-25T09:34:02.541Z,764
2017-01-25T09:35:02.170Z,836
2017-01-25T09:36:01.799Z,820
2017-01-25T09:37:02.215Z,928
2017-01-25T09:38:02.092Z,940
2017-01-25T09:39:02.281Z,924
2017-01-25T09:40:01.502Z,856
2017-01-25T09:41:01.917Z,956
2017-01-25T09:42:02.339Z,908
2017-01-25T09:43:03.013Z,888
2017-01-25T09:44:02.389Z,856
2017-01-25T09:45:01.623Z,904
2017-01-25T09:46:02.042Z,816
2017-01-25T09:47:02.487Z,756
2017-01-25T09:48:02.344Z,752
2017-01-25T09:49:02.513Z,748
2017-01-25T09:50:01.745Z,736
2017-01-25T09:51:02.179Z,736
2017-01-25T09:52:02.199Z,780
2017-01-25T09:53:02.859Z,768
2017-01-25T09:54:02.244Z,768
2017-01-25T09:55:02.265Z,836
2017-01-25T09:56:01.897Z,776
2017-01-25T09:57:02.307Z,856
2017-01-25T09:58:02.988Z,832
2017-01-25T09:59:02.372Z,744
2017-01-25T10:00:02.393Z,788
2017-01-25T10:01:02.418Z,780
2017-01-25T10:02:02.830Z,728
2017-01-25T10:03:02.963Z,804
2017-01-25T10:04:03.284Z,780
2017-01-25T10:05:02.513Z,908
2017-01-25T10:06:02.935Z,940
2017-01-25T10:07:02.571Z,900
2017-01-25T10:08:03.239Z,840
2017-01-25T10:09:03.012Z,908
2017-01-25T10:10:02.637Z,876
2017-01-25T10:11:03.457Z,828
2017-01-25T10:12:03.473Z,872
2017-01-25T10:13:02.966Z,884
2017-01-25T10:14:02.332Z,908
2017-01-25T10:15:03.560Z,864
2017-01-25T10:16:02.790Z,892
2017-01-25T10:17:03.206Z,888
2017-01-25T10:18:03.886Z,912
2017-01-25T10:19:35.367Z,948
2017-01-25T10:20:17.368Z,964
2017-01-25T10:21:49.088Z,972
2017-01-25T10:22:49.133Z,992
2017-01-25T10:23:30.599Z,1032
2017-01-25T10:24:31.159Z,944
2017-01-25T10:25:30.796Z,848
2017-01-25T10:26:31.217Z,872
2017-01-25T10:27:30.448Z,876
2017-01-25T10:28:30.725Z,832
2017-01-25T10:29:30.490Z,904
2017-01-25T10:30:30.907Z,920
2017-01-25T10:31:30.144Z,964
2017-01-25T10:32:31.400Z,952
2017-01-25T10:33:30.450Z,892
2017-01-25T10:34:31.014Z,924
2017-01-25T10:35:30.255Z,948
2017-01-25T10:36:30.667Z,980
2017-01-25T10:37:31.092Z,976
2017-01-25T10:38:31.612Z,996
2017-01-25T10:39:31.129Z,1096
2017-01-25T10:40:31.162Z,1120
2017-01-25T10:41:30.779Z,1044
2017-01-25T10:42:30.420Z,1012
2017-01-25T10:43:31.477Z,1008
2017-01-25T10:44:30.863Z,1080
2017-01-25T10:45:31.285Z,1036
2017-01-25T10:46:30.911Z,1036
2017-01-25T10:47:30.942Z,1016
2017-01-25T10:48:31.206Z,1036
2017-01-25T10:49:30.988Z,1004
2017-01-25T10:50:31.409Z,964
2017-01-25T10:51:31.042Z,1048
2017-01-25T10:52:31.054Z,992
2017-01-25T10:53:30.687Z,1032
2017-01-25T10:54:31.356Z,1020
2017-01-25T10:55:31.534Z,976
2017-01-25T10:56:30.760Z,1044
2017-01-25T10:57:31.978Z,1056
2017-01-25T10:58:31.602Z,1032
2017-01-25T10:59:31.084Z,968
2017-01-25T11:00:31.268Z,1064
2017-01-25T11:01:32.073Z,1108
2017-01-25T11:02:31.738Z,1076
2017-01-25T11:03:32.133Z,1060
2017-01-25T11:04:32.004Z,1204
2017-01-25T11:05:31.784Z,1180
2017-01-25T11:06:31.412Z,1116
2017-01-25T11:07:31.037Z,1104
2017-01-25T11:08:31.454Z,1128
2017-01-25T11:09:32.782Z,1196
2017-01-25T11:10:31.502Z,1236
2017-01-25T11:11:31.528Z,1264
2017-01-25T11:12:31.541Z,1128
2017-01-25T11:13:31.578Z,1408
2017-01-25T11:14:32.267Z,1512
2017-01-25T11:15:32.019Z,1544
2017-01-25T11:16:31.264Z,1616
2017-01-25T11:17:31.276Z,1604
2017-01-25T11:18:31.713Z,1396
2017-01-25T11:19:31.978Z,1500
2017-01-25T11:20:32.146Z,1392
2017-01-25T11:21:31.779Z,1376
2017-01-25T11:22:31.792Z,1332
2017-01-25T11:23:32.621Z,1444
2017-01-25T11:24:32.501Z,1364
2017-01-25T11:25:31.482Z,1308
2017-01-25T11:26:31.902Z,1216
2017-01-25T11:27:32.322Z,1316
2017-01-25T11:28:31.952Z,1336
2017-01-25T11:29:32.625Z,1192
2017-01-25T11:30:32.406Z,1220
2017-01-25T11:31:32.434Z,1236
2017-01-25T11:32:32.440Z,1216
2017-01-25T11:33:32.101Z,1196
2017-01-25T11:34:32.752Z,1144
2017-01-25T11:35:32.909Z,1144
2017-01-25T11:36:32.150Z,1184
2017-01-25T11:37:32.559Z,1184
2017-01-25T11:38:32.591Z,1228
2017-01-25T11:39:33.259Z,1256
2017-01-25T11:40:32.249Z,1392
2017-01-25T11:41:33.066Z,1548
2017-01-25T11:42:32.297Z,1616
2017-01-25T11:43:32.319Z,1540
2017-01-25T11:44:32.362Z,1580
2017-01-25T11:45:33.012Z,1740
2017-01-25T11:46:33.189Z,1392
2017-01-25T11:47:32.446Z,1340
2017-01-25T11:48:32.844Z,1500
2017-01-25T11:49:32.471Z,1736
2017-01-25T11:50:33.396Z,1524
2017-01-25T11:51:33.308Z,1368
2017-01-25T11:52:33.333Z,1368
2017-01-25T11:53:32.609Z,1388
2017-01-25T11:54:32.987Z,1408
2017-01-25T11:55:33.278Z,1364
2017-01-25T11:56:32.648Z,1316
2017-01-25T11:57:33.466Z,1236
2017-01-25T11:58:33.481Z,1284
2017-01-25T11:59:33.510Z,1416
2017-01-25T12:00:32.983Z,1456
2017-01-25T12:01:33.164Z,1436
2017-01-25T12:02:33.591Z,1448
2017-01-25T12:03:33.215Z,1420
2017-01-25T12:04:33.631Z,1368
2017-01-25T12:05:32.477Z,1524
2017-01-25T12:06:33.936Z,1372
2017-01-25T12:07:33.309Z,1344
2017-01-25T12:08:33.333Z,1316
2017-01-25T12:09:33.358Z,1332
2017-01-25T12:10:33.383Z,1296
2017-01-25T12:11:33.516Z,1392
2017-01-25T12:12:33.836Z,1344
2017-01-25T12:13:33.064Z,1256
2017-01-25T12:14:33.105Z,1328
2017-01-25T12:15:33.519Z,1324
2017-01-25T12:16:33.387Z,1260
2017-01-25T12:17:33.163Z,1208
2017-01-25T12:18:33.184Z,1224
2017-01-25T12:19:33.611Z,1252
2017-01-25T12:20:34.018Z,1240
2017-01-25T12:21:34.303Z,1168
2017-01-25T12:22:34.080Z,1144
2017-01-25T12:23:33.708Z,1172
2017-01-25T12:24:33.340Z,1256
2017-01-25T12:25:33.368Z,1256
2017-01-25T12:26:33.636Z,1192
2017-01-25T12:27:33.807Z,1192
2017-01-25T12:28:33.835Z,1132
2017-01-25T12:29:33.884Z,1088
2017-01-25T12:30:33.880Z,1116
2017-01-25T12:31:34.558Z,1120
2017-01-25T12:32:33.929Z,1140
2017-01-25T12:33:33.950Z,1160
2017-01-25T12:34:33.583Z,1200
2017-01-25T12:35:33.615Z,1284
2017-01-25T12:36:34.277Z,1404
2017-01-25T12:37:34.461Z,1384
2017-01-25T12:38:34.478Z,1384
2017-01-25T12:39:34.108Z,1336
2017-01-25T12:40:34.524Z,1316
2017-01-25T12:41:34.804Z,1236
2017-01-25T12:42:34.200Z,1312
2017-01-25T12:43:34.205Z,1340
2017-01-25T12:44:33.428Z,1372
2017-01-25T12:45:33.453Z,1364
2017-01-25T12:46:34.667Z,1376
2017-01-25T12:47:34.156Z,1336
2017-01-25T12:48:33.936Z,1260
2017-01-25T12:49:34.354Z,1176
2017-01-25T12:50:33.978Z,1172
2017-01-25T12:51:34.015Z,1184
2017-01-25T12:52:34.934Z,1180
2017-01-25T12:53:34.051Z,1144
2017-01-25T12:54:34.476Z,1040
2017-01-25T12:55:34.499Z,1044
2017-01-25T12:56:34.158Z,1112
2017-01-25T12:57:34.011Z,1160
2017-01-25T12:58:34.568Z,1276
2017-01-25T12:59:34.997Z,1200
2017-01-25T13:00:34.630Z,1132
2017-01-25T13:01:35.049Z,1144
2017-01-25T13:02:34.524Z,1172
2017-01-25T13:03:35.099Z,1064
2017-01-25T13:04:35.116Z,964
2017-01-25T13:05:33.961Z,972
2017-01-25T13:06:34.382Z,1032
2017-01-25T13:07:34.251Z,1016
2017-01-25T13:08:34.028Z,1028
2017-01-25T13:09:34.451Z,964
2017-01-25T13:10:34.872Z,876
2017-01-25T13:11:34.106Z,932
2017-01-25T13:12:34.804Z,952
2017-01-25T13:13:34.155Z,1000
2017-01-25T13:14:34.573Z,1024
2017-01-25T13:15:34.600Z,996
2017-01-25T13:16:34.633Z,928
2017-01-25T13:17:35.287Z,896
2017-01-25T13:18:34.674Z,888
2017-01-25T13:19:35.096Z,892
2017-01-25T13:20:35.540Z,884
2017-01-25T13:21:35.153Z,868
2017-01-25T13:22:35.425Z,892
2017-01-25T13:23:34.798Z,888
2017-01-25T13:24:35.216Z,904
2017-01-25T13:25:35.264Z,944
2017-01-25T13:26:34.477Z,908
2017-01-25T13:27:35.541Z,864
2017-01-25T13:28:35.318Z,856
2017-01-25T13:29:35.745Z,868
2017-01-25T13:30:35.368Z,888
2017-01-25T13:31:35.832Z,920
2017-01-25T13:32:34.630Z,924
2017-01-25T13:33:34.908Z,936
2017-01-25T13:34:35.071Z,956
2017-01-25T13:35:34.700Z,1008
2017-01-25T13:36:35.113Z,932
2017-01-25T13:37:35.150Z,896
2017-01-25T13:38:36.074Z,908
2017-01-25T13:39:36.007Z,1036
2017-01-25T13:40:35.220Z,968
2017-01-25T13:41:35.241Z,892
2017-01-25T13:42:35.669Z,792
2017-01-25T13:43:35.939Z,892
2017-01-25T13:44:36.110Z,884
2017-01-25T13:45:35.744Z,968
2017-01-25T13:46:35.373Z,1064
2017-01-25T13:47:35.397Z,992
2017-01-25T13:48:36.478Z,1008
2017-01-25T13:49:35.827Z,964
2017-01-25T13:50:35.863Z,820
2017-01-25T13:51:35.488Z,832
2017-01-25T13:52:35.133Z,792
2017-01-25T13:53:36.193Z,756
2017-01-25T13:54:35.191Z,804
2017-01-25T13:55:35.191Z,856
2017-01-25T13:56:36.013Z,812
2017-01-25T13:57:36.426Z,852
2017-01-25T13:58:36.313Z,804
2017-01-25T13:59:35.291Z,840
2017-01-25T14:00:36.112Z,788
2017-01-25T14:01:36.136Z,700
2017-01-25T14:02:35.374Z,696
2017-01-25T14:03:36.440Z,712
2017-01-25T14:04:35.823Z,704
2017-01-25T14:05:35.471Z,680
2017-01-25T14:06:36.277Z,660
2017-01-25T14:07:36.689Z,692
2017-01-25T14:08:36.562Z,716
2017-01-25T14:09:35.944Z,692
2017-01-25T14:10:35.970Z,660
2017-01-25T14:11:36.388Z,652
2017-01-25T14:12:36.013Z,632